Time;durP1;ratioP1;P1;durP2;ratioP2;P2;SDS_P1;SDS_P2;PMS_P1;PMS_P2;Temp;Humidity;BMP_temperature;BMP_pressure;BME280_temperature;BME280_humidity;BME280_pressure;Samples;Min_cycle;Max_cycle;Signal;HPM_P1;HPM_P2
2023/10/11 00:03:05;;;;;;;6.78;4.05;;;;;;;;;;5064286;28;20036;-80
2023/10/11 00:05:39;;;;;;;7.38;4.00;;;;;;;;;;5063183;28;20036;-77
2023/10/11 00:08:05;;;;;;;9.20;3.80;;;;;;;;;;5048147;28;20111;-79
2023/10/11 00:10:30;;;;;;;7.88;4.07;;;;;;;;;;5063181;28;20154;-78
2023/10/11 00:12:58;;;;;;;6.97;3.80;;;;;;;;;;5046706;28;20404;-77
2023/10/11 00:15:28;;;;;;;8.02;4.10;;;;;;;;;;5058365;28;20025;-76
2023/10/11 00:17:54;;;;;;;7.25;3.45;;;;;;;;;;5057811;28;20380;-77
2023/10/11 00:20:27;;;;;;;11.10;4.18;;;;;;;;;;5042437;28;20035;-77
2023/10/11 00:22:53;;;;;;;7.47;3.95;;;;;;;;;;5043498;28;20465;-77
2023/10/11 00:25:24;;;;;;;7.35;3.83;;;;;;;;;;5046519;28;20028;-79
2023/10/11 00:27:57;;;;;;;7.20;3.65;;;;;;;;;;5059269;28;20020;-77
2023/10/11 00:30:24;;;;;;;7.40;4.20;;;;;;;;;;5042459;28;21446;-77
2023/10/11 00:32:49;;;;;;;8.43;4.07;;;;;;;;;;5045549;28;20032;-79
2023/10/11 00:35:25;;;;;;;8.20;4.10;;;;;;;;;;5061261;28;20039;-76
2023/10/11 00:37:52;;;;;;;8.07;4.25;;;;;;;;;;5061892;28;20365;-77
2023/10/11 00:40:32;;;;;;;7.18;3.70;;;;;;;;;;5044166;28;20025;-77
2023/10/11 00:42:58;;;;;;;8.30;3.80;;;;;;;;;;5044576;28;20021;-78
2023/10/11 00:45:30;;;;;;;9.60;3.90;;;;;;;;;;5046344;28;20487;-77
2023/10/11 00:47:56;;;;;;;7.43;3.80;;;;;;;;;;5048766;28;20551;-77
2023/10/11 00:50:23;;;;;;;9.50;4.30;;;;;;;;;;5066073;28;20022;-78
2023/10/11 00:52:50;;;;;;;7.75;3.85;;;;;;;;;;5046000;28;20028;-78
2023/10/11 00:55:21;;;;;;;7.65;3.80;;;;;;;;;;5042969;28;21241;-77
2023/10/11 00:57:49;;;;;;;8.40;4.00;;;;;;;;;;5058903;28;20431;-77
2023/10/11 01:00:21;;;;;;;7.80;4.65;;;;;;;;;;5057988;28;20024;-83
2023/10/11 01:02:50;;;;;;;7.18;4.13;;;;;;;;;;5057697;28;20066;-87
2023/10/11 01:05:17;;;;;;;9.02;4.13;;;;;;;;;;5057658;28;20028;-86
2023/10/11 01:07:44;;;;;;;9.23;4.00;;;;;;;;;;5058789;28;20024;-87
2023/10/11 01:10:10;;;;;;;8.20;3.80;;;;;;;;;;5057759;28;20028;-81
2023/10/11 01:12:35;;;;;;;7.15;3.92;;;;;;;;;;5057784;28;20029;-87
2023/10/11 01:15:01;;;;;;;8.93;4.10;;;;;;;;;;5057172;28;20029;-87
2023/10/11 01:17:30;;;;;;;6.60;4.05;;;;;;;;;;5038908;28;20592;-87
2023/10/11 01:19:55;;;;;;;10.55;4.20;;;;;;;;;;5046261;28;20047;-80
2023/10/11 01:22:21;;;;;;;7.70;3.60;;;;;;;;;;5042775;28;20029;-80
2023/10/11 01:24:47;;;;;;;9.40;3.95;;;;;;;;;;5061632;28;20032;-83
2023/10/11 01:27:16;;;;;;;6.97;3.90;;;;;;;;;;5062771;28;20024;-88
2023/10/11 01:29:41;;;;;;;7.22;3.83;;;;;;;;;;5045113;28;20054;-87
2023/10/11 01:32:07;;;;;;;6.82;3.50;;;;;;;;;;5060872;28;21260;-87
2023/10/11 01:34:32;;;;;;;8.52;3.65;;;;;;;;;;5062805;28;20028;-87
2023/10/11 01:36:58;;;;;;;6.60;3.85;;;;;;;;;;5068759;28;20119;-87
2023/10/11 01:39:23;;;;;;;8.20;4.03;;;;;;;;;;5060011;28;20495;-88
2023/10/11 01:41:49;;;;;;;10.05;4.35;;;;;;;;;;5068652;28;20051;-88
2023/10/11 01:44:15;;;;;;;6.85;4.22;;;;;;;;;;5045688;28;20046;-87
2023/10/11 01:46:41;;;;;;;8.27;4.07;;;;;;;;;;5063465;28;20502;-89
2023/10/11 01:49:10;;;;;;;9.93;3.80;;;;;;;;;;5060795;28;20504;-88
2023/10/11 01:51:46;;;;;;;8.65;4.07;;;;;;;;;;5061094;28;20484;-87
2023/10/11 01:54:12;;;;;;;7.25;3.90;;;;;;;;;;5058682;28;20048;-86
2023/10/11 01:56:38;;;;;;;7.85;3.95;;;;;;;;;;5042273;28;20024;-81
2023/10/11 01:59:04;;;;;;;6.90;4.00;;;;;;;;;;5038366;28;20063;-87
2023/10/11 02:01:38;;;;;;;9.27;3.90;;;;;;;;;;5036858;28;20112;-86
2023/10/11 02:04:04;;;;;;;7.28;3.85;;;;;;;;;;5056563;28;20029;-83
2023/10/11 02:06:32;;;;;;;9.85;4.15;;;;;;;;;;5057440;28;20040;-87
2023/10/11 02:08:58;;;;;;;8.32;3.65;;;;;;;;;;5058765;28;20039;-84
2023/10/11 02:11:25;;;;;;;7.70;4.50;;;;;;;;;;5055287;28;20043;-85
2023/10/11 02:13:52;;;;;;;6.45;3.90;;;;;;;;;;5054471;28;20021;-87
2023/10/11 02:16:18;;;;;;;8.88;4.45;;;;;;;;;;5041194;28;20035;-88
2023/10/11 02:18:43;;;;;;;11.32;4.30;;;;;;;;;;5040247;28;20032;-88
2023/10/11 02:21:08;;;;;;;7.07;4.50;;;;;;;;;;5038636;28;20032;-87
2023/10/11 02:23:40;;;;;;;6.63;3.55;;;;;;;;;;5041069;28;20024;-85
2023/10/11 02:26:16;;;;;;;6.32;3.72;;;;;;;;;;5057801;28;20031;-87
2023/10/11 02:28:43;;;;;;;7.18;4.20;;;;;;;;;;5062918;28;20472;-87
2023/10/11 02:31:13;;;;;;;6.95;4.25;;;;;;;;;;5041282;28;20028;-80
2023/10/11 02:33:39;;;;;;;6.63;4.25;;;;;;;;;;5047176;28;21462;-80
2023/10/11 02:36:08;;;;;;;9.20;4.28;;;;;;;;;;5059122;28;20408;-80
2023/10/11 02:38:41;;;;;;;7.70;4.43;;;;;;;;;;5060254;28;20031;-80
2023/10/11 02:41:07;;;;;;;9.32;4.28;;;;;;;;;;5045994;28;20037;-80
2023/10/11 02:43:33;;;;;;;10.32;4.85;;;;;;;;;;5058401;28;20077;-81
2023/10/11 02:45:59;;;;;;;8.43;4.35;;;;;;;;;;5044170;28;20431;-80
2023/10/11 02:48:27;;;;;;;7.70;4.45;;;;;;;;;;5058954;28;20024;-80
2023/10/11 02:50:54;;;;;;;7.22;4.38;;;;;;;;;;5061140;28;20090;-80
2023/10/11 02:53:23;;;;;;;10.18;4.63;;;;;;;;;;5057474;28;20025;-80
2023/10/11 02:55:58;;;;;;;8.20;4.35;;;;;;;;;;5060386;28;20036;-80
2023/10/11 02:58:29;;;;;;;8.27;4.43;;;;;;;;;;5059548;28;20017;-79
2023/10/11 03:01:10;;;;;;;10.25;4.63;;;;;;;;;;5054926;28;20434;-80
2023/10/11 03:03:38;;;;;;;9.35;4.65;;;;;;;;;;5040381;28;21683;-80
2023/10/11 03:06:07;;;;;;;7.47;4.15;;;;;;;;;;5055291;28;20027;-80
2023/10/11 03:08:33;;;;;;;9.65;4.88;;;;;;;;;;5056041;28;20526;-80
2023/10/11 03:11:04;;;;;;;10.60;4.75;;;;;;;;;;5037814;28;20036;-80
2023/10/11 03:13:31;;;;;;;9.88;4.55;;;;;;;;;;5043022;28;20529;-76
2023/10/11 03:15:58;;;;;;;7.40;4.50;;;;;;;;;;5044607;28;20028;-78
2023/10/11 03:18:31;;;;;;;8.00;4.20;;;;;;;;;;5040473;28;20032;-80
2023/10/11 03:21:16;;;;;;;7.07;4.30;;;;;;;;;;5038777;28;20036;-77
2023/10/11 03:23:45;;;;;;;8.57;5.10;;;;;;;;;;5045718;28;20024;-77
2023/10/11 03:26:18;;;;;;;9.30;4.82;;;;;;;;;;5061224;28;20107;-77
2023/10/11 03:28:58;;;;;;;9.85;4.95;;;;;;;;;;5044966;28;20113;-77
2023/10/11 03:31:29;;;;;;;9.40;4.78;;;;;;;;;;5062928;28;20476;-76
2023/10/11 03:34:14;;;;;;;8.40;4.70;;;;;;;;;;5066399;28;20472;-76
2023/10/11 03:36:49;;;;;;;9.00;4.57;;;;;;;;;;5040643;28;20365;-79
2023/10/11 03:44:54;;;;;;;7.82;4.53;;;;;;;;;;5023438;28;20075;-87
2023/10/11 03:47:24;;;;;;;13.00;4.93;;;;;;;;;;5046279;28;20440;-88
2023/10/11 03:49:53;;;;;;;7.32;4.70;;;;;;;;;;5043185;28;20334;-80
2023/10/11 03:52:30;;;;;;;8.82;4.70;;;;;;;;;;5047012;28;20070;-87
2023/10/11 03:55:09;;;;;;;8.43;4.28;;;;;;;;;;5037697;28;20025;-88
2023/10/11 03:57:41;;;;;;;10.48;4.78;;;;;;;;;;5066890;28;20141;-87
2023/10/11 04:00:25;;;;;;;8.18;5.32;;;;;;;;;;5040264;28;20036;-83
2023/10/11 04:03:05;;;;;;;7.85;5.00;;;;;;;;;;5037900;28;20767;-83
2023/10/11 04:05:40;;;;;;;8.40;4.82;;;;;;;;;;5060141;28;20058;-87
2023/10/11 04:08:06;;;;;;;8.27;4.60;;;;;;;;;;5062488;28;20073;-83
2023/10/11 04:10:49;;;;;;;8.45;4.75;;;;;;;;;;5048631;28;20423;-85
2023/10/11 04:13:15;;;;;;;8.27;5.00;;;;;;;;;;5051676;28;20048;-84
2023/10/11 04:15:49;;;;;;;7.80;4.88;;;;;;;;;;5036095;28;20123;-87
2023/10/11 04:18:20;;;;;;;10.93;4.70;;;;;;;;;;5058290;28;20021;-82
2023/10/11 04:20:53;;;;;;;9.05;5.10;;;;;;;;;;5052284;28;20020;-79
2023/10/11 04:23:24;;;;;;;;;;;;;;;;;;5056624;28;20031;-79
2023/10/11 04:25:49;;;;;;;11.25;5.10;;;;;;;;;;5054159;28;20418;-79
2023/10/11 04:28:15;;;;;;;10.05;4.93;;;;;;;;;;5055012;28;20040;-79
2023/10/11 04:30:46;;;;;;;8.63;4.97;;;;;;;;;;5041098;28;20107;-79
2023/10/11 04:33:20;;;;;;;11.30;5.13;;;;;;;;;;5062975;28;20032;-80
2023/10/11 04:35:58;;;;;;;9.57;5.38;;;;;;;;;;5056852;28;20032;-88
2023/10/11 04:38:24;;;;;;;8.18;5.00;;;;;;;;;;5058879;28;20384;-86
2023/10/11 04:40:52;;;;;;;10.48;5.00;;;;;;;;;;5064062;28;20029;-78
2023/10/11 04:43:20;;;;;;;12.68;5.25;;;;;;;;;;5042050;28;20531;-80
2023/10/11 04:45:51;;;;;;;8.40;5.00;;;;;;;;;;5059869;28;20516;-77
2023/10/11 04:48:32;;;;;;;9.35;5.30;;;;;;;;;;5056258;28;20563;-79
2023/10/11 04:59:06;;;;;;;9.75;5.38;;;;;;;;;;5064674;28;20044;-79
2023/10/11 05:01:58;;;;;;;7.78;5.25;;;;;;;;;;5043251;28;20029;-80
2023/10/11 05:04:27;;;;;;;8.07;5.55;;;;;;;;;;5046862;28;20028;-79
2023/10/11 05:06:54;;;;;;;9.32;5.40;;;;;;;;;;5074742;28;20028;-80
2023/10/11 05:11:58;;;;;;;9.50;5.28;;;;;;;;;;5068915;28;20484;-77
2023/10/11 05:14:29;;;;;;;10.30;5.13;;;;;;;;;;5047481;28;20559;-76
2023/10/11 05:27:58;;;;;;;10.68;5.22;;;;;;;;;;5063208;28;20031;-77
2023/10/11 05:30:28;;;;;;;8.93;5.07;;;;;;;;;;5068272;28;20082;-77
2023/10/11 05:52:07;;;;;;;8.18;5.45;;;;;;;;;;5065145;28;20488;-79
2023/10/11 05:54:36;;;;;;;10.82;6.07;;;;;;;;;;5051599;28;20035;-80
2023/10/11 05:57:03;;;;;;;8.85;5.30;;;;;;;;;;5038937;28;20511;-80
2023/10/11 05:59:31;;;;;;;12.82;6.43;;;;;;;;;;5041311;28;20027;-80
2023/10/11 06:01:57;;;;;;;10.60;6.03;;;;;;;;;;5044964;28;20457;-80
2023/10/11 06:04:23;;;;;;;9.55;5.72;;;;;;;;;;5057942;28;20028;-80
2023/10/11 06:06:57;;;;;;;16.05;5.80;;;;;;;;;;5044216;28;20430;-80
2023/10/11 06:09:26;;;;;;;9.98;5.65;;;;;;;;;;5047275;28;20472;-80
2023/10/11 06:11:52;;;;;;;14.50;6.20;;;;;;;;;;5042134;28;20086;-80
2023/10/11 06:14:19;;;;;;;10.13;5.72;;;;;;;;;;5066267;28;20452;-80
2023/10/11 06:16:49;;;;;;;9.57;6.25;;;;;;;;;;5049013;28;20111;-80
2023/10/11 06:19:16;;;;;;;10.35;5.72;;;;;;;;;;5060424;28;20025;-80
2023/10/11 06:21:58;;;;;;;9.80;6.13;;;;;;;;;;5065664;28;20523;-80
2023/10/11 06:24:34;;;;;;;17.38;6.18;;;;;;;;;;5058286;28;20028;-80
2023/10/11 06:29:39;;;;;;;10.35;5.55;;;;;;;;;;5057657;28;20094;-80
2023/10/11 06:32:11;;;;;;;11.93;6.75;;;;;;;;;;5041190;28;20029;-79
2023/10/11 06:34:37;;;;;;;13.47;6.57;;;;;;;;;;5067316;28;20036;-80
2023/10/11 06:37:06;;;;;;;10.70;6.10;;;;;;;;;;5077315;28;20668;-76
2023/10/11 06:42:14;;;;;;;9.82;6.53;;;;;;;;;;5065031;28;20032;-78
2023/10/11 06:44:48;;;;;;;9.10;5.63;;;;;;;;;;5063331;28;20027;-77
2023/10/11 06:47:14;;;;;;;11.00;6.38;;;;;;;;;;5062334;28;20027;-77
2023/10/11 06:49:47;;;;;;;9.55;5.70;;;;;;;;;;5062307;28;20566;-76
2023/10/11 06:52:19;;;;;;;10.82;6.57;;;;;;;;;;5066053;28;20048;-77
2023/10/11 06:54:46;;;;;;;12.48;6.40;;;;;;;;;;5045040;28;20040;-76
2023/10/11 06:57:21;;;;;;;11.73;6.10;;;;;;;;;;5062276;28;20040;-77
2023/10/11 06:59:49;;;;;;;10.57;6.22;;;;;;;;;;5067458;28;20036;-79
2023/10/11 07:02:31;;;;;;;11.05;6.55;;;;;;;;;;5071745;28;20020;-78
2023/10/11 07:05:17;;;;;;;12.93;7.25;;;;;;;;;;5069609;28;20555;-76
2023/10/11 07:07:47;;;;;;;11.32;7.13;;;;;;;;;;5051070;28;20037;-77
2023/10/11 07:10:31;;;;;;;12.13;7.03;;;;;;;;;;5054721;28;20170;-76
2023/10/11 07:13:12;;;;;;;;;;;;;;;;;;5066692;28;20033;-76
2023/10/11 07:15:47;;;;;;;13.68;7.55;;;;;;;;;;5064253;28;20364;-88
2023/10/11 07:18:27;;;;;;;14.57;7.43;;;;;;;;;;5066108;28;20028;-81
2023/10/11 07:21:07;;;;;;;13.20;7.45;;;;;;;;;;5066335;28;20471;-88
2023/10/11 07:23:35;;;;;;;11.85;7.53;;;;;;;;;;5062020;28;20056;-88
2023/10/11 07:28:52;;;;;;;12.88;7.47;;;;;;;;;;5063346;28;20048;-79
2023/10/11 07:31:27;;;;;;;14.45;7.93;;;;;;;;;;5048195;28;20571;-80
2023/10/11 07:33:55;;;;;;;12.50;7.70;;;;;;;;;;5042256;28;20480;-80
2023/10/11 07:36:22;;;;;;;13.07;8.45;;;;;;;;;;5073741;28;20035;-80
2023/10/11 07:38:54;;;;;;;14.82;7.63;;;;;;;;;;5069302;28;20055;-80
2023/10/11 07:41:27;;;;;;;16.25;8.98;;;;;;;;;;5065784;28;20034;-80
2023/10/11 07:43:55;;;;;;;13.15;7.82;;;;;;;;;;5072194;28;20573;-79
2023/10/11 07:46:21;;;;;;;14.27;8.30;;;;;;;;;;5045962;28;20031;-80
2023/10/11 07:48:46;;;;;;;11.52;7.57;;;;;;;;;;5063451;28;20032;-80
2023/10/11 07:51:12;;;;;;;13.98;8.15;;;;;;;;;;5045309;28;20098;-80
2023/10/11 07:53:43;;;;;;;15.00;8.65;;;;;;;;;;5067294;28;20024;-80
2023/10/11 07:56:15;;;;;;;14.25;8.52;;;;;;;;;;5047279;28;20036;-79
2023/10/11 07:58:45;;;;;;;14.38;8.65;;;;;;;;;;5050132;28;20116;-80
2023/10/11 08:04:11;;;;;;;17.33;8.32;;;;;;;;;;5031968;28;20509;-79
2023/10/11 08:06:39;;;;;;;14.32;8.70;;;;;;;;;;5066548;28;20154;-79
2023/10/11 08:09:06;;;;;;;15.50;8.68;;;;;;;;;;5054332;28;20044;-80
2023/10/11 08:11:45;;;;;;;14.57;8.55;;;;;;;;;;5054473;28;20385;-79
2023/10/11 08:14:15;;;;;;;17.73;9.10;;;;;;;;;;5067265;28;20023;-81
2023/10/11 08:16:47;;;;;;;16.88;8.75;;;;;;;;;;5067418;28;20054;-79
2023/10/11 08:19:13;;;;;;;15.25;8.95;;;;;;;;;;5045377;28;20494;-79
2023/10/11 08:21:39;;;;;;;13.57;8.35;;;;;;;;;;5070511;28;20050;-79
2023/10/11 08:24:06;;;;;;;17.45;8.85;;;;;;;;;;5070677;28;20495;-79
2023/10/11 08:26:42;;;;;;;14.73;9.10;;;;;;;;;;5062905;28;20032;-80
2023/10/11 08:29:16;;;;;;;12.90;8.30;;;;;;;;;;5063110;28;20052;-80
2023/10/11 08:31:44;;;;;;;16.48;8.88;;;;;;;;;;5070683;28;20051;-79
2023/10/11 08:34:09;;;;;;;13.88;8.77;;;;;;;;;;5069828;28;20042;-79
2023/10/11 08:36:34;;;;;;;18.02;9.80;;;;;;;;;;5065037;28;20016;-79
2023/10/11 08:39:06;;;;;;;15.65;9.60;;;;;;;;;;5068026;28;20024;-80
2023/10/11 08:41:33;;;;;;;16.38;9.95;;;;;;;;;;5066533;28;20013;-80
2023/10/11 08:44:14;;;;;;;16.38;10.50;;;;;;;;;;5046699;28;20120;-79
2023/10/11 08:46:44;;;;;;;19.85;10.68;;;;;;;;;;5069623;28;20024;-80
2023/10/11 08:49:11;;;;;;;17.83;11.20;;;;;;;;;;5073461;28;20373;-80
2023/10/11 08:51:41;;;;;;;23.35;12.30;;;;;;;;;;5062255;28;20376;-79
2023/10/11 08:54:11;;;;;;;18.30;11.50;;;;;;;;;;5051542;28;20115;-80
2023/10/11 08:56:44;;;;;;;20.52;10.98;;;;;;;;;;5054272;28;20063;-79
2023/10/11 08:59:14;;;;;;;22.15;12.45;;;;;;;;;;5069468;28;20032;-80
2023/10/11 09:01:45;;;;;;;19.33;12.93;;;;;;;;;;5051466;28;20028;-79
2023/10/11 09:04:15;;;;;;;21.98;12.88;;;;;;;;;;5044884;28;20076;-80
2023/10/11 09:06:43;;;;;;;18.52;11.93;;;;;;;;;;5066155;28;20377;-80
2023/10/11 09:09:15;;;;;;;19.25;12.20;;;;;;;;;;5061898;28;20085;-79
2023/10/11 09:11:55;;;;;;;22.50;13.25;;;;;;;;;;5064426;28;20020;-80
2023/10/11 09:14:23;;;;;;;21.15;12.98;;;;;;;;;;5065750;28;20064;-80
2023/10/11 09:16:57;;;;;;;22.35;13.07;;;;;;;;;;5067326;28;20038;-79
2023/10/11 09:19:26;;;;;;;24.13;13.38;;;;;;;;;;5062779;28;20028;-79
2023/10/11 09:22:03;;;;;;;23.55;13.18;;;;;;;;;;5045227;28;20028;-80
2023/10/11 09:24:29;;;;;;;20.02;12.95;;;;;;;;;;5043850;28;20020;-80
2023/10/11 09:29:47;;;;;;;23.08;12.98;;;;;;;;;;5066342;28;20380;-87
2023/10/11 09:32:18;;;;;;;19.88;13.18;;;;;;;;;;5044034;28;20025;-77
2023/10/11 09:34:45;;;;;;;23.85;14.02;;;;;;;;;;5043812;28;20085;-79
2023/10/11 09:37:13;;;;;;;25.35;14.55;;;;;;;;;;5044612;28;20024;-79
2023/10/11 09:39:41;;;;;;;26.08;13.85;;;;;;;;;;5064709;28;20105;-77
2023/10/11 09:42:11;;;;;;;22.13;13.63;;;;;;;;;;5060097;28;20033;-78
2023/10/11 09:44:45;;;;;;;23.50;13.88;;;;;;;;;;5062703;28;20036;-76
2023/10/11 09:47:16;;;;;;;23.33;13.52;;;;;;;;;;5060746;28;20029;-78
2023/10/11 09:49:42;;;;;;;28.67;13.93;;;;;;;;;;5043954;28;20492;-77
2023/10/11 09:52:17;;;;;;;25.08;14.25;;;;;;;;;;5047750;28;20036;-77
2023/10/11 09:54:42;;;;;;;23.15;13.68;;;;;;;;;;5062809;28;20420;-77
2023/10/11 09:57:33;;;;;;;25.52;14.55;;;;;;;;;;5064334;28;20032;-77
2023/10/11 10:00:37;;;;;;;22.23;13.45;;;;;;;;;;5048048;28;20029;-77
2023/10/11 10:03:04;;;;;;;23.75;14.35;;;;;;;;;;5062860;28;20016;-76
2023/10/11 10:06:04;;;;;;;23.40;13.95;;;;;;;;;;5046596;28;20148;-77
2023/10/11 10:08:29;;;;;;;25.23;14.07;;;;;;;;;;5066995;28;20101;-78
2023/10/11 10:10:55;;;;;;;25.65;14.30;;;;;;;;;;5069121;28;20021;-77
2023/10/11 10:13:24;;;;;;;25.05;14.18;;;;;;;;;;5047807;28;20047;-77
2023/10/11 10:15:52;;;;;;;22.05;13.52;;;;;;;;;;5068524;28;20024;-77
2023/10/11 10:18:22;;;;;;;22.77;13.82;;;;;;;;;;5051524;28;20060;-78
2023/10/11 10:21:02;;;;;;;22.70;13.70;;;;;;;;;;5068006;28;20123;-77
2023/10/11 10:23:32;;;;;;;24.25;14.18;;;;;;;;;;5049020;28;20404;-77
2023/10/11 10:26:07;;;;;;;26.38;13.98;;;;;;;;;;5050417;28;20029;-78
2023/10/11 10:28:34;;;;;;;24.90;13.77;;;;;;;;;;5061783;28;20063;-76
2023/10/11 10:31:12;;;;;;;23.13;14.52;;;;;;;;;;5053138;28;20356;-77
2023/10/11 10:33:39;;;;;;;22.33;13.50;;;;;;;;;;5066652;28;20711;-78
2023/10/11 10:36:29;;;;;;;23.25;13.82;;;;;;;;;;5047831;28;20476;-77
2023/10/11 10:38:57;;;;;;;20.13;12.98;;;;;;;;;;5065446;28;20113;-77
2023/10/11 10:41:24;;;;;;;24.33;14.20;;;;;;;;;;5070298;28;20051;-90
2023/10/11 10:44:03;;;;;;;24.90;12.95;;;;;;;;;;5049733;28;20036;-87
2023/10/11 10:46:28;;;;;;;26.83;13.15;;;;;;;;;;5064963;28;20028;-88
2023/10/11 10:48:56;;;;;;;19.10;12.40;;;;;;;;;;5061422;28;20028;-83
2023/10/11 10:51:21;;;;;;;22.13;11.98;;;;;;;;;;5064943;28;20495;-87
2023/10/11 10:53:53;;;;;;;21.92;11.93;;;;;;;;;;5053306;28;20037;-88
2023/10/11 10:56:24;;;;;;;22.25;12.25;;;;;;;;;;5070251;28;20020;-88
2023/10/11 10:59:03;;;;;;;18.70;11.93;;;;;;;;;;5063084;28;20025;-86
2023/10/11 11:01:34;;;;;;;18.92;11.13;;;;;;;;;;5068557;28;20025;-89
2023/10/11 11:03:59;;;;;;;20.13;11.18;;;;;;;;;;5048621;28;20033;-89
2023/10/11 11:06:36;;;;;;;22.67;11.00;;;;;;;;;;5062451;28;20543;-89
2023/10/11 11:09:02;;;;;;;19.08;11.18;;;;;;;;;;5068036;28;20024;-89
2023/10/11 11:11:31;;;;;;;21.50;11.20;;;;;;;;;;5051503;28;20488;-89
2023/10/11 11:13:56;;;;;;;16.88;10.50;;;;;;;;;;5070066;28;20056;-89
2023/10/11 11:16:29;;;;;;;16.30;10.80;;;;;;;;;;5053584;28;20060;-89
2023/10/11 11:19:01;;;;;;;18.23;10.18;;;;;;;;;;5071244;28;20035;-88
2023/10/11 11:21:29;;;;;;;20.35;10.35;;;;;;;;;;5073127;28;20036;-89
2023/10/11 11:23:55;;;;;;;17.45;9.98;;;;;;;;;;5077850;28;20024;-87
2023/10/11 11:26:23;;;;;;;21.23;10.15;;;;;;;;;;5052077;28;20023;-89
2023/10/11 11:28:53;;;;;;;17.45;9.18;;;;;;;;;;5072287;28;20403;-89
2023/10/11 11:34:07;;;;;;;15.90;9.43;;;;;;;;;;5065299;28;20135;-87
2023/10/11 11:36:40;;;;;;;;;;;;;;;;;;5067001;28;20056;-88
2023/10/11 11:39:26;;;;;;;16.83;8.70;;;;;;;;;;5070693;28;19912;-88
2023/10/11 11:41:53;;;;;;;16.30;9.23;;;;;;;;;;5053421;28;20135;-89
2023/10/11 11:44:22;;;;;;;17.88;10.30;;;;;;;;;;5068437;28;20051;-88
2023/10/11 11:46:52;;;;;;;17.02;9.05;;;;;;;;;;5072499;28;20059;-89
2023/10/11 11:49:23;;;;;;;18.05;9.82;;;;;;;;;;5072596;28;20047;-88
2023/10/11 11:51:55;;;;;;;15.68;9.52;;;;;;;;;;5052278;28;20181;-88
2023/10/11 11:54:22;;;;;;;19.48;9.90;;;;;;;;;;5068320;28;20491;-89
2023/10/11 11:56:54;;;;;;;18.88;10.05;;;;;;;;;;5053684;28;20574;-90
2023/10/11 11:59:29;;;;;;;15.52;10.30;;;;;;;;;;5055418;28;20028;-90
2023/10/11 12:01:59;;;;;;;16.00;10.05;;;;;;;;;;5052558;28;20020;-89
2023/10/11 12:04:29;;;;;;;19.90;11.30;;;;;;;;;;5052307;28;20032;-89
2023/10/11 12:07:09;;;;;;;18.70;10.82;;;;;;;;;;5049522;28;20024;-87
2023/10/11 12:09:35;;;;;;;19.58;11.07;;;;;;;;;;5049560;28;20067;-90
2023/10/11 12:12:05;;;;;;;22.95;11.40;;;;;;;;;;5052152;28;20025;-90
2023/10/11 12:14:39;;;;;;;19.73;11.30;;;;;;;;;;5070180;28;20024;-88
2023/10/11 12:17:11;;;;;;;21.85;12.07;;;;;;;;;;5049279;28;20025;-88
2023/10/11 12:19:38;;;;;;;22.83;12.50;;;;;;;;;;5065120;28;20025;-89
2023/10/11 12:22:04;;;;;;;22.60;13.07;;;;;;;;;;5052691;28;20056;-83
2023/10/11 12:24:30;;;;;;;20.23;13.27;;;;;;;;;;5050089;28;20098;-89
2023/10/11 12:26:58;;;;;;;23.52;13.88;;;;;;;;;;5066175;28;20031;-85
2023/10/11 12:29:24;;;;;;;22.50;13.80;;;;;;;;;;5069106;28;20025;-89
2023/10/11 12:31:49;;;;;;;22.38;14.18;;;;;;;;;;5064796;28;20025;-86
2023/10/11 12:34:23;;;;;;;22.52;14.77;;;;;;;;;;5060021;28;20029;-90
2023/10/11 12:36:51;;;;;;;22.90;14.10;;;;;;;;;;5047185;28;20036;-84
2023/10/11 12:39:29;;;;;;;22.13;15.10;;;;;;;;;;5029350;28;20063;-86
2023/10/11 12:41:56;;;;;;;21.95;14.48;;;;;;;;;;5060344;28;20021;-89
2023/10/11 12:44:22;;;;;;;27.20;15.77;;;;;;;;;;5066740;28;20028;-89
2023/10/11 12:46:50;;;;;;;25.75;15.68;;;;;;;;;;5063632;28;20060;-88
2023/10/11 12:49:16;;;;;;;25.98;16.33;;;;;;;;;;5065384;28;20095;-88
2023/10/11 12:51:44;;;;;;;22.45;15.57;;;;;;;;;;5066814;28;20112;-89
2023/10/11 12:54:19;;;;;;;26.20;16.98;;;;;;;;;;5047827;28;20036;-88
2023/10/11 12:56:45;;;;;;;22.98;16.02;;;;;;;;;;5062615;28;20090;-87
2023/10/11 12:59:13;;;;;;;26.98;15.70;;;;;;;;;;5047486;28;20465;-86
2023/10/11 13:01:50;;;;;;;25.50;16.20;;;;;;;;;;5064592;28;20021;-81
2023/10/11 13:04:24;;;;;;;23.88;15.45;;;;;;;;;;5049364;28;20028;-80
2023/10/11 13:06:50;;;;;;;24.75;16.45;;;;;;;;;;5066021;28;20024;-80
2023/10/11 13:09:27;;;;;;;24.95;16.67;;;;;;;;;;5070782;28;20051;-80
2023/10/11 13:11:56;;;;;;;26.63;16.58;;;;;;;;;;5065310;28;20093;-80
2023/10/11 13:14:22;;;;;;;29.23;16.73;;;;;;;;;;5066380;28;20024;-81
2023/10/11 13:16:51;;;;;;;25.50;16.65;;;;;;;;;;5062413;28;20086;-81
2023/10/11 13:19:19;;;;;;;28.70;17.75;;;;;;;;;;5048617;28;20480;-81
2023/10/11 13:21:48;;;;;;;30.55;17.98;;;;;;;;;;5056753;28;20025;-81
2023/10/11 13:24:21;;;;;;;28.67;17.60;;;;;;;;;;5052297;28;20029;-80
2023/10/11 13:26:47;;;;;;;;;;;;;;;;;;5032992;28;20035;-81
2023/10/11 13:29:16;;;;;;;28.60;16.58;;;;;;;;;;5071770;28;19916;-81
2023/10/11 13:31:44;;;;;;;30.05;17.10;;;;;;;;;;5045297;28;20553;-81
2023/10/11 13:34:10;;;;;;;28.55;18.38;;;;;;;;;;5072122;28;20507;-81
2023/10/11 13:36:35;;;;;;;26.92;16.75;;;;;;;;;;5063119;28;20033;-81
2023/10/11 13:39:01;;;;;;;24.27;16.70;;;;;;;;;;5068033;28;20037;-81
2023/10/11 13:41:31;;;;;;;27.88;17.48;;;;;;;;;;5068943;28;20032;-81
2023/10/11 13:43:56;;;;;;;26.75;16.92;;;;;;;;;;5067460;28;20401;-81
2023/10/11 13:46:22;;;;;;;29.88;18.10;;;;;;;;;;5061868;28;20024;-80
2023/10/11 13:48:49;;;;;;;26.77;16.25;;;;;;;;;;5062222;28;20625;-81
2023/10/11 13:51:18;;;;;;;27.90;16.75;;;;;;;;;;5061483;28;20036;-81
2023/10/11 13:53:44;;;;;;;28.10;16.67;;;;;;;;;;5070377;28;20171;-81
2023/10/11 13:56:31;;;;;;;21.88;15.02;;;;;;;;;;5062788;28;20111;-81
2023/10/11 13:58:56;;;;;;;29.23;16.10;;;;;;;;;;5068333;28;20039;-80
2023/10/11 14:01:57;;;;;;;28.45;16.02;;;;;;;;;;5068345;28;20028;-80
2023/10/11 14:07:32;;;;;;;25.02;14.90;;;;;;;;;;5074968;28;20106;-81
2023/10/11 14:09:54;;;;;;;23.42;14.13;;;;;;;;;;5064729;28;20048;-87
2023/10/11 14:12:24;;;;;;;23.70;13.40;;;;;;;;;;5065763;28;20020;-90
2023/10/11 14:14:51;;;;;;;24.02;13.27;;;;;;;;;;5068694;28;20407;-87
2023/10/11 14:17:16;;;;;;;22.75;12.98;;;;;;;;;;5070292;28;20571;-89
2023/10/11 14:19:42;;;;;;;22.75;12.45;;;;;;;;;;5044063;28;20039;-86
2023/10/11 14:22:07;;;;;;;22.10;13.00;;;;;;;;;;5072673;28;20036;-90
2023/10/11 14:24:33;;;;;;;18.95;11.70;;;;;;;;;;5050519;28;20043;-85
2023/10/11 14:27:05;;;;;;;22.02;12.23;;;;;;;;;;5047907;28;20036;-90
2023/10/11 14:29:30;;;;;;;16.83;10.77;;;;;;;;;;5046708;28;20035;-88
2023/10/11 14:31:58;;;;;;;21.80;10.85;;;;;;;;;;5041280;28;20029;-89
2023/10/11 14:34:24;;;;;;;18.02;11.25;;;;;;;;;;5063879;28;20432;-85
2023/10/11 14:36:50;;;;;;;20.77;11.10;;;;;;;;;;5049917;28;20056;-87
2023/10/11 14:39:19;;;;;;;18.40;11.02;;;;;;;;;;5065856;28;20468;-88
2023/10/11 14:41:45;;;;;;;18.23;10.23;;;;;;;;;;5043122;28;20087;-86
2023/10/11 14:44:13;;;;;;;21.42;11.00;;;;;;;;;;5046045;28;20085;-87
2023/10/11 14:46:40;;;;;;;17.15;10.25;;;;;;;;;;5066630;28;20024;-88
2023/10/11 14:49:05;;;;;;;20.08;10.13;;;;;;;;;;5049278;28;20512;-89
2023/10/11 14:51:36;;;;;;;19.73;10.75;;;;;;;;;;5039208;28;20111;-87
2023/10/11 14:54:03;;;;;;;20.52;10.98;;;;;;;;;;5039350;28;20029;-88
2023/10/11 14:56:30;;;;;;;19.35;10.73;;;;;;;;;;5062183;28;20039;-89
2023/10/11 14:58:56;;;;;;;19.95;10.50;;;;;;;;;;5043799;28;20116;-88
2023/10/11 15:01:23;;;;;;;21.17;9.98;;;;;;;;;;5050842;28;20357;-88
2023/10/11 15:03:48;;;;;;;17.13;9.65;;;;;;;;;;5063532;28;20028;-86
2023/10/11 15:06:13;;;;;;;15.40;9.38;;;;;;;;;;5064575;28;20439;-89
2023/10/11 15:08:44;;;;;;;15.15;9.50;;;;;;;;;;5065070;28;20050;-89
2023/10/11 15:11:11;;;;;;;17.73;9.70;;;;;;;;;;5050430;28;20036;-86
2023/10/11 15:13:38;;;;;;;18.67;10.27;;;;;;;;;;5051730;28;20411;-88
2023/10/11 15:16:04;;;;;;;23.13;9.27;;;;;;;;;;5059460;28;20047;-88
2023/10/11 15:18:34;;;;;;;18.10;9.43;;;;;;;;;;5068970;28;20080;-90
2023/10/11 15:21:01;;;;;;;14.90;9.20;;;;;;;;;;5068349;28;20563;-81
2023/10/11 15:23:28;;;;;;;18.75;10.13;;;;;;;;;;5055710;28;20024;-80
2023/10/11 15:25:54;;;;;;;20.67;9.90;;;;;;;;;;5069061;28;20024;-80
2023/10/11 15:28:20;;;;;;;15.23;9.10;;;;;;;;;;5048142;28;20059;-81
2023/10/11 15:30:45;;;;;;;19.95;9.63;;;;;;;;;;5047788;28;20064;-88
2023/10/11 15:33:12;;;;;;;18.63;9.27;;;;;;;;;;5070711;28;20031;-89
2023/10/11 15:35:38;;;;;;;20.17;9.70;;;;;;;;;;5067072;28;20060;-89
2023/10/11 15:38:05;;;;;;;23.15;9.38;;;;;;;;;;5052401;28;20125;-89
2023/10/11 15:40:31;;;;;;;19.00;8.80;;;;;;;;;;5051601;28;20037;-91
2023/10/11 15:42:57;;;;;;;16.90;8.88;;;;;;;;;;5047337;28;20492;-88
2023/10/11 15:45:23;;;;;;;18.83;8.45;;;;;;;;;;5065490;28;20016;-90
2023/10/11 15:47:48;;;;;;;19.35;8.30;;;;;;;;;;5067816;28;20399;-85
2023/10/11 15:50:13;;;;;;;18.15;7.85;;;;;;;;;;5059293;28;20020;-88
2023/10/11 15:52:41;;;;;;;18.00;7.70;;;;;;;;;;5059595;28;20025;-86
2023/10/11 15:55:08;;;;;;;19.10;8.15;;;;;;;;;;5050647;28;20020;-90